sensor_id;sensor_type;location;lat;lon;timestamp;pressure;altitude;pressure_sealevel;temperature;humidity
44920;BME280;30655;53.094;6.072;2022-07-23T00:00:18;102073.03;;;15.32;83.16
44920;BME280;30655;53.094;6.072;2022-07-23T00:02:56;101891.16;;;14.21;83.08
44920;BME280;30655;53.094;6.072;2022-07-23T00:05:26;101898.25;;;14.28;83.28
44920;BME280;30655;53.094;6.072;2022-07-23T00:08:02;102056.44;;;15.34;83.01
44920;BME280;30655;53.094;6.072;2022-07-23T00:10:49;102054.50;;;15.34;82.98
44920;BME280;30655;53.094;6.072;2022-07-23T00:13:29;101887.91;;;14.25;82.72
44920;BME280;30655;53.094;6.072;2022-07-23T00:16:08;102057.22;;;15.34;82.93
44920;BME280;30655;53.094;6.072;2022-07-23T00:19:32;102018.25;;;15.08;82.74
44920;BME280;30655;53.094;6.072;2022-07-23T00:21:57;101876.44;;;14.17;82.83
44920;BME280;30655;53.094;6.072;2022-07-23T00:24:31;101935.09;;;14.60;82.88
44920;BME280;30655;53.094;6.072;2022-07-23T00:27:06;101883.53;;;14.18;82.89
44920;BME280;30655;53.094;6.072;2022-07-23T00:29:33;101859.28;;;14.07;82.90
44920;BME280;30655;53.094;6.072;2022-07-23T00:32:02;102025.31;;;15.09;82.85
44920;BME280;30655;53.094;6.072;2022-07-23T00:34:39;101888.97;;;14.18;82.77
44920;BME280;30655;53.094;6.072;2022-07-23T00:37:06;102048.75;;;15.21;82.91
44920;BME280;30655;53.094;6.072;2022-07-23T00:39:41;101888.97;;;14.18;82.93
44920;BME280;30655;53.094;6.072;2022-07-23T00:42:13;101924.38;;;14.34;82.99
44920;BME280;30655;53.094;6.072;2022-07-23T00:44:40;101903.44;;;14.29;83.02
44920;BME280;30655;53.094;6.072;2022-07-23T00:47:12;102045.19;;;15.15;83.00
44920;BME280;30655;53.094;6.072;2022-07-23T00:49:49;101894.91;;;14.15;82.90
44920;BME280;30655;53.094;6.072;2022-07-23T00:52:23;101951.38;;;14.50;83.20
44920;BME280;30655;53.094;6.072;2022-07-23T00:54:59;101863.84;;;13.96;83.08
44920;BME280;30655;53.094;6.072;2022-07-23T00:57:26;101994.19;;;14.80;83.29
44920;BME280;30655;53.094;6.072;2022-07-23T01:00:00;101840.69;;;13.78;83.13
44920;BME280;30655;53.094;6.072;2022-07-23T01:02:28;102028.53;;;14.91;83.79
44920;BME280;30655;53.094;6.072;2022-07-23T01:04:57;102038.88;;;14.94;83.28
44920;BME280;30655;53.094;6.072;2022-07-23T01:07:44;101866.00;;;13.84;83.46
44920;BME280;30655;53.094;6.072;2022-07-23T01:10:25;101850.19;;;13.81;83.50
44920;BME280;30655;53.094;6.072;2022-07-23T01:13:01;101846.06;;;13.68;83.53
44920;BME280;30655;53.094;6.072;2022-07-23T01:15:40;101954.34;;;14.39;83.80
44920;BME280;30655;53.094;6.072;2022-07-23T01:18:09;101872.19;;;13.74;84.03
44920;BME280;30655;53.094;6.072;2022-07-23T01:20:43;101866.13;;;13.62;84.06
44920;BME280;30655;53.094;6.072;2022-07-23T01:23:12;102029.53;;;14.65;84.19
44920;BME280;30655;53.094;6.072;2022-07-23T01:25:52;101844.31;;;13.47;84.25
44920;BME280;30655;53.094;6.072;2022-07-23T01:28:21;101845.66;;;13.45;84.21
44920;BME280;30655;53.094;6.072;2022-07-23T01:30:49;102019.97;;;14.57;84.80
44920;BME280;30655;53.094;6.072;2022-07-23T01:33:23;101843.75;;;13.45;84.68
44920;BME280;30655;53.094;6.072;2022-07-23T01:35:55;101913.31;;;13.93;84.72
44920;BME280;30655;53.094;6.072;2022-07-23T01:38:26;102007.97;;;14.48;85.03
44920;BME280;30655;53.094;6.072;2022-07-23T01:40:57;101948.75;;;14.08;84.54
44920;BME280;30655;53.094;6.072;2022-07-23T01:43:26;101918.47;;;13.95;84.40
44920;BME280;30655;53.094;6.072;2022-07-23T01:46:00;101933.69;;;13.91;84.71
44920;BME280;30655;53.094;6.072;2022-07-23T01:48:41;101936.13;;;13.92;84.53
44920;BME280;30655;53.094;6.072;2022-07-23T01:51:09;101827.63;;;13.28;84.53
44920;BME280;30655;53.094;6.072;2022-07-23T01:53:39;101830.59;;;13.27;84.36
44920;BME280;30655;53.094;6.072;2022-07-23T01:56:09;102008.91;;;14.22;84.78
44920;BME280;30655;53.094;6.072;2022-07-23T01:58:43;101881.00;;;13.50;84.64
44920;BME280;30655;53.094;6.072;2022-07-23T02:01:13;101817.75;;;13.12;84.62
44920;BME280;30655;53.094;6.072;2022-07-23T02:03:46;101835.09;;;13.11;84.78
44920;BME280;30655;53.094;6.072;2022-07-23T02:06:17;101996.63;;;14.14;85.00
44920;BME280;30655;53.094;6.072;2022-07-23T02:11:43;102015.09;;;14.12;85.14
44920;BME280;30655;53.094;6.072;2022-07-23T02:14:21;101947.53;;;13.84;85.06
44920;BME280;30655;53.094;6.072;2022-07-23T02:17:17;101895.88;;;13.42;84.75
44920;BME280;30655;53.094;6.072;2022-07-23T02:19:58;101914.72;;;13.54;85.10
44920;BME280;30655;53.094;6.072;2022-07-23T02:22:33;101953.50;;;13.86;85.03
44920;BME280;30655;53.094;6.072;2022-07-23T02:25:08;101832.63;;;13.10;84.84
44920;BME280;30655;53.094;6.072;2022-07-23T02:27:37;101884.72;;;13.39;84.81
44920;BME280;30655;53.094;6.072;2022-07-23T02:30:25;101913.69;;;13.60;85.00
44920;BME280;30655;53.094;6.072;2022-07-23T02:33:01;101955.63;;;13.79;84.95
44920;BME280;30655;53.094;6.072;2022-07-23T02:35:32;101986.19;;;14.01;84.60
44920;BME280;30655;53.094;6.072;2022-07-23T02:38:07;101935.19;;;13.71;84.99
44920;BME280;30655;53.094;6.072;2022-07-23T02:40:42;101984.28;;;13.97;84.80
44920;BME280;30655;53.094;6.072;2022-07-23T02:43:13;101980.72;;;13.96;85.01
44920;BME280;30655;53.094;6.072;2022-07-23T02:45:50;101984.00;;;13.93;84.98
44920;BME280;30655;53.094;6.072;2022-07-23T02:48:17;101825.69;;;12.92;85.22
44920;BME280;30655;53.094;6.072;2022-07-23T02:50:53;101827.84;;;12.85;84.99
44920;BME280;30655;53.094;6.072;2022-07-23T02:53:20;101810.03;;;12.67;85.25
44920;BME280;30655;53.094;6.072;2022-07-23T02:55:51;101979.75;;;13.70;85.73
44920;BME280;30655;53.094;6.072;2022-07-23T02:58:21;101997.97;;;13.75;85.70
44920;BME280;30655;53.094;6.072;2022-07-23T03:00:53;101973.84;;;13.47;86.10
44920;BME280;30655;53.094;6.072;2022-07-23T03:03:21;101928.84;;;13.19;86.14
44920;BME280;30655;53.094;6.072;2022-07-23T03:05:55;101886.78;;;12.94;86.02
44920;BME280;30655;53.094;6.072;2022-07-23T03:08:23;102001.72;;;13.64;86.50
44920;BME280;30655;53.094;6.072;2022-07-23T03:10:56;101823.69;;;12.50;86.09
44920;BME280;30655;53.094;6.072;2022-07-23T03:13:27;101997.06;;;13.59;86.59
44920;BME280;30655;53.094;6.072;2022-07-23T03:15:59;102011.97;;;13.57;86.44
44920;BME280;30655;53.094;6.072;2022-07-23T03:18:29;101946.28;;;13.28;86.28
44920;BME280;30655;53.094;6.072;2022-07-23T03:21:26;101832.84;;;12.39;86.61
44920;BME280;30655;53.094;6.072;2022-07-23T03:23:54;101964.50;;;13.32;86.84
44920;BME280;30655;53.094;6.072;2022-07-23T03:26:28;101997.28;;;13.53;86.83
44920;BME280;30655;53.094;6.072;2022-07-23T03:28:58;101968.28;;;13.31;86.64
44920;BME280;30655;53.094;6.072;2022-07-23T03:31:36;101840.13;;;12.39;86.58
44920;BME280;30655;53.094;6.072;2022-07-23T03:34:08;102007.53;;;13.46;86.96
44920;BME280;30655;53.094;6.072;2022-07-23T03:36:37;101822.38;;;12.26;86.82
44920;BME280;30655;53.094;6.072;2022-07-23T03:39:09;101892.31;;;12.78;86.97
44920;BME280;30655;53.094;6.072;2022-07-23T03:41:50;101915.72;;;12.84;87.01
44920;BME280;30655;53.094;6.072;2022-07-23T03:44:20;101825.66;;;12.28;86.83
44920;BME280;30655;53.094;6.072;2022-07-23T03:46:47;101835.91;;;12.26;87.03
44920;BME280;30655;53.094;6.072;2022-07-23T03:49:17;101897.19;;;12.76;87.33
44920;BME280;30655;53.094;6.072;2022-07-23T03:51:54;101852.94;;;12.43;87.21
44920;BME280;30655;53.094;6.072;2022-07-23T03:54:26;101835.16;;;12.31;87.21
44920;BME280;30655;53.094;6.072;2022-07-23T03:56:59;101852.63;;;12.40;87.32
44920;BME280;30655;53.094;6.072;2022-07-23T03:59:31;101993.34;;;13.39;87.72
44920;BME280;30655;53.094;6.072;2022-07-23T04:02:01;101893.16;;;12.78;87.54
44920;BME280;30655;53.094;6.072;2022-07-23T04:04:36;101785.97;;;12.17;87.73
44920;BME280;30655;53.094;6.072;2022-07-23T04:07:09;101967.63;;;13.14;87.68
44920;BME280;30655;53.094;6.072;2022-07-23T04:09:42;101974.31;;;13.33;87.60
44920;BME280;30655;53.094;6.072;2022-07-23T04:12:15;101916.94;;;12.98;87.79
44920;BME280;30655;53.094;6.072;2022-07-23T04:14:47;101865.25;;;12.56;87.57
44920;BME280;30655;53.094;6.072;2022-07-23T04:17:30;101829.53;;;12.37;88.07
44920;BME280;30655;53.094;6.072;2022-07-23T04:20:02;101854.41;;;12.56;88.09
44920;BME280;30655;53.094;6.072;2022-07-23T04:22:31;101938.56;;;13.15;88.17
44920;BME280;30655;53.094;6.072;2022-07-23T04:24:58;101836.66;;;12.43;88.49
44920;BME280;30655;53.094;6.072;2022-07-23T04:27:26;101836.19;;;12.51;88.46
44920;BME280;30655;53.094;6.072;2022-07-23T04:29:56;101912.59;;;12.97;88.41
44920;BME280;30655;53.094;6.072;2022-07-23T04:32:23;101805.91;;;12.33;88.53
44920;BME280;30655;53.094;6.072;2022-07-23T04:34:52;101891.31;;;12.84;88.79
44920;BME280;30655;53.094;6.072;2022-07-23T04:37:22;102012.31;;;13.65;88.67
44920;BME280;30655;53.094;6.072;2022-07-23T04:39:52;101818.28;;;12.50;88.62
44920;BME280;30655;53.094;6.072;2022-07-23T04:42:19;101894.69;;;13.01;88.70
44920;BME280;30655;53.094;6.072;2022-07-23T04:44:50;101928.50;;;13.15;88.89
44920;BME280;30655;53.094;6.072;2022-07-23T04:47:18;102014.81;;;13.72;88.92
44920;BME280;30655;53.094;6.072;2022-07-23T04:49:56;101936.13;;;13.13;88.82
44920;BME280;30655;53.094;6.072;2022-07-23T04:52:26;102010.50;;;13.76;88.98
44920;BME280;30655;53.094;6.072;2022-07-23T04:54:55;101914.94;;;13.15;89.12
44920;BME280;30655;53.094;6.072;2022-07-23T04:57:28;101998.44;;;13.62;89.03
44920;BME280;30655;53.094;6.072;2022-07-23T04:59:57;101984.31;;;13.60;89.24
44920;BME280;30655;53.094;6.072;2022-07-23T05:02:26;101864.22;;;12.89;89.36
44920;BME280;30655;53.094;6.072;2022-07-23T05:04:56;101905.75;;;13.21;89.14
44920;BME280;30655;53.094;6.072;2022-07-23T05:07:26;102030.44;;;13.92;89.17
44920;BME280;30655;53.094;6.072;2022-07-23T05:09:56;101892.34;;;13.10;89.41
44920;BME280;30655;53.094;6.072;2022-07-23T05:12:26;101855.59;;;12.97;89.11
44920;BME280;30655;53.094;6.072;2022-07-23T05:15:03;101844.44;;;12.93;89.10
44920;BME280;30655;53.094;6.072;2022-07-23T05:17:32;102028.66;;;14.07;89.32
44920;BME280;30655;53.094;6.072;2022-07-23T05:19:59;101847.19;;;12.99;89.69
44920;BME280;30655;53.094;6.072;2022-07-23T05:22:27;101878.13;;;13.24;89.20
44920;BME280;30655;53.094;6.072;2022-07-23T05:24:58;101820.03;;;12.93;89.36
44920;BME280;30655;53.094;6.072;2022-07-23T05:27:28;102020.59;;;14.22;89.57
44920;BME280;30655;53.094;6.072;2022-07-23T05:30:03;102005.09;;;14.23;89.44
44920;BME280;30655;53.094;6.072;2022-07-23T05:32:31;101920.00;;;13.75;89.31
44920;BME280;30655;53.094;6.072;2022-07-23T05:34:58;101858.69;;;13.43;89.43
44920;BME280;30655;53.094;6.072;2022-07-23T05:37:28;102030.31;;;14.55;89.36
44920;BME280;30655;53.094;6.072;2022-07-23T05:40:03;102026.28;;;14.63;89.08
44920;BME280;30655;53.094;6.072;2022-07-23T05:42:33;101856.31;;;13.56;89.07
44920;BME280;30655;53.094;6.072;2022-07-23T05:45:04;101991.94;;;14.57;88.82
44920;BME280;30655;53.094;6.072;2022-07-23T05:47:39;101871.47;;;13.94;88.81
44920;BME280;30655;53.094;6.072;2022-07-23T05:50:08;101833.28;;;13.64;88.58
44920;BME280;30655;53.094;6.072;2022-07-23T05:52:36;102022.53;;;14.84;88.61
44920;BME280;30655;53.094;6.072;2022-07-23T05:55:09;102043.00;;;15.02;88.64
44920;BME280;30655;53.094;6.072;2022-07-23T06:01:11;102034.59;;;15.19;88.45
44920;BME280;30655;53.094;6.072;2022-07-23T06:03:48;101853.03;;;14.11;88.39
44920;BME280;30655;53.094;6.072;2022-07-23T06:06:28;101986.91;;;15.06;88.29
44920;BME280;30655;53.094;6.072;2022-07-23T06:09:06;102034.91;;;15.42;88.01
44920;BME280;30655;53.094;6.072;2022-07-23T06:11:33;101889.94;;;14.54;87.97
44920;BME280;30655;53.094;6.072;2022-07-23T06:14:05;101861.88;;;14.44;87.50
44920;BME280;30655;53.094;6.072;2022-07-23T06:16:38;101985.31;;;15.35;87.50
44920;BME280;30655;53.094;6.072;2022-07-23T06:19:05;101998.41;;;15.43;87.42
44920;BME280;30655;53.094;6.072;2022-07-23T06:21:36;101976.06;;;15.41;86.87
44920;BME280;30655;53.094;6.072;2022-07-23T06:24:13;101998.97;;;15.66;86.52
44920;BME280;30655;53.094;6.072;2022-07-23T06:26:40;101890.28;;;15.03;85.80
44920;BME280;30655;53.094;6.072;2022-07-23T06:29:07;101927.28;;;15.35;85.07
44920;BME280;30655;53.094;6.072;2022-07-23T06:31:35;101980.72;;;15.66;84.83
44920;BME280;30655;53.094;6.072;2022-07-23T06:34:05;101907.69;;;15.23;84.45
44920;BME280;30655;53.094;6.072;2022-07-23T06:36:31;101970.34;;;15.78;83.86
44920;BME280;30655;53.094;6.072;2022-07-23T06:38:58;101968.72;;;15.77;83.24
44920;BME280;30655;53.094;6.072;2022-07-23T06:41:26;102031.63;;;16.16;82.85
44920;BME280;30655;53.094;6.072;2022-07-23T06:43:53;102037.88;;;16.27;82.67
44920;BME280;30655;53.094;6.072;2022-07-23T06:46:20;102033.75;;;16.29;82.21
44920;BME280;30655;53.094;6.072;2022-07-23T06:48:48;101978.50;;;15.88;81.89
44920;BME280;30655;53.094;6.072;2022-07-23T06:51:15;102035.94;;;16.38;81.59
44920;BME280;30655;53.094;6.072;2022-07-23T06:53:48;102037.31;;;16.35;81.20
44920;BME280;30655;53.094;6.072;2022-07-23T06:56:15;102040.03;;;16.35;80.38
44920;BME280;30655;53.094;6.072;2022-07-23T06:58:50;102044.13;;;16.38;77.79
44920;BME280;30655;53.094;6.072;2022-07-23T07:01:37;102052.31;;;16.38;78.75
44920;BME280;30655;53.094;6.072;2022-07-23T07:04:19;101923.75;;;15.55;78.80
44920;BME280;30655;53.094;6.072;2022-07-23T07:06:46;101899.78;;;15.57;77.61
44920;BME280;30655;53.094;6.072;2022-07-23T07:09:14;101930.81;;;15.76;76.45
44920;BME280;30655;53.094;6.072;2022-07-23T07:11:41;101904.97;;;15.63;76.65
44920;BME280;30655;53.094;6.072;2022-07-23T07:14:09;101993.66;;;16.35;76.29
44920;BME280;30655;53.094;6.072;2022-07-23T07:16:40;102012.66;;;16.55;75.41
44920;BME280;30655;53.094;6.072;2022-07-23T07:19:09;101940.50;;;16.22;74.83
44920;BME280;30655;53.094;6.072;2022-07-23T07:21:38;102002.31;;;16.57;73.22
44920;BME280;30655;53.094;6.072;2022-07-23T07:24:06;102036.53;;;16.94;72.59
44920;BME280;30655;53.094;6.072;2022-07-23T07:26:36;101904.78;;;16.19;71.99
44920;BME280;30655;53.094;6.072;2022-07-23T07:29:08;101912.59;;;16.41;72.15
44920;BME280;30655;53.094;6.072;2022-07-23T07:31:35;102035.78;;;17.32;72.31
44920;BME280;30655;53.094;6.072;2022-07-23T07:34:02;102001.97;;;17.23;71.41
44920;BME280;30655;53.094;6.072;2022-07-23T07:36:35;101999.72;;;17.30;70.36
44920;BME280;30655;53.094;6.072;2022-07-23T07:39:08;102019.34;;;17.37;67.57
44920;BME280;30655;53.094;6.072;2022-07-23T07:41:41;101942.53;;;17.05;68.56
44920;BME280;30655;53.094;6.072;2022-07-23T07:44:44;101908.94;;;17.04;68.87
44920;BME280;30655;53.094;6.072;2022-07-23T07:47:13;101916.22;;;17.14;68.00
44920;BME280;30655;53.094;6.072;2022-07-23T07:49:42;102059.22;;;18.11;67.48
44920;BME280;30655;53.094;6.072;2022-07-23T07:52:11;101921.41;;;17.15;67.35
44920;BME280;30655;53.094;6.072;2022-07-23T07:54:40;102063.19;;;18.24;66.60
44920;BME280;30655;53.094;6.072;2022-07-23T07:57:11;101934.09;;;17.35;65.94
44920;BME280;30655;53.094;6.072;2022-07-23T07:59:45;102029.22;;;18.01;66.39
44920;BME280;30655;53.094;6.072;2022-07-23T08:02:12;101948.72;;;17.49;66.04
44920;BME280;30655;53.094;6.072;2022-07-23T08:04:44;101934.00;;;17.45;66.02
44920;BME280;30655;53.094;6.072;2022-07-23T08:07:15;102007.72;;;17.89;65.49
44920;BME280;30655;53.094;6.072;2022-07-23T08:09:55;102099.22;;;18.60;64.20
44920;BME280;30655;53.094;6.072;2022-07-23T08:12:25;101950.28;;;17.60;63.79
44920;BME280;30655;53.094;6.072;2022-07-23T08:15:03;102097.03;;;18.62;64.14
44920;BME280;30655;53.094;6.072;2022-07-23T08:17:42;101965.28;;;17.68;63.49
44920;BME280;30655;53.094;6.072;2022-07-23T08:20:17;102047.00;;;18.27;62.97
44920;BME280;30655;53.094;6.072;2022-07-23T08:23:02;102100.16;;;18.74;63.25
44920;BME280;30655;53.094;6.072;2022-07-23T08:25:40;101988.94;;;18.06;62.82
44920;BME280;30655;53.094;6.072;2022-07-23T08:28:21;101927.50;;;17.70;63.57
44920;BME280;30655;53.094;6.072;2022-07-23T08:30:53;101936.38;;;17.86;63.33
44920;BME280;30655;53.094;6.072;2022-07-23T08:33:41;102076.09;;;18.71;62.81
44920;BME280;30655;53.094;6.072;2022-07-23T08:40:29;102117.59;;;18.83;62.15
44920;BME280;30655;53.094;6.072;2022-07-23T08:46:16;101942.94;;;17.56;62.08
44920;BME280;30655;53.094;6.072;2022-07-23T08:56:31;101968.34;;;17.61;62.23
44920;BME280;30655;53.094;6.072;2022-07-23T09:03:15;101964.47;;;17.68;61.12
44920;BME280;30655;53.094;6.072;2022-07-23T09:06:57;101974.88;;;17.89;61.79
44920;BME280;30655;53.094;6.072;2022-07-23T09:17:02;102105.41;;;19.13;61.12
44920;BME280;30655;53.094;6.072;2022-07-23T09:35:50;102105.03;;;19.62;61.31
44920;BME280;30655;53.094;6.072;2022-07-23T09:38:17;102112.22;;;19.76;61.13
44920;BME280;30655;53.094;6.072;2022-07-23T09:40:45;102055.38;;;19.45;61.25
44920;BME280;30655;53.094;6.072;2022-07-23T09:43:12;102114.31;;;19.98;60.83
44920;BME280;30655;53.094;6.072;2022-07-23T09:45:40;102115.38;;;20.02;60.53
44920;BME280;30655;53.094;6.072;2022-07-23T09:48:40;101966.03;;;19.06;60.06
44920;BME280;30655;53.094;6.072;2022-07-23T09:54:57;101949.44;;;18.79;60.19
44920;BME280;30655;53.094;6.072;2022-07-23T09:57:42;102000.63;;;19.02;61.51
44920;BME280;30655;53.094;6.072;2022-07-23T10:00:56;102126.69;;;19.82;61.27
44920;BME280;30655;53.094;6.072;2022-07-23T10:03:45;102120.06;;;19.83;61.40
44920;BME280;30655;53.094;6.072;2022-07-23T10:06:50;101974.13;;;18.98;61.74
44920;BME280;30655;53.094;6.072;2022-07-23T10:09:38;101978.63;;;19.07;61.43
44920;BME280;30655;53.094;6.072;2022-07-23T10:12:13;101966.09;;;19.20;60.79
44920;BME280;30655;53.094;6.072;2022-07-23T10:14:52;101989.56;;;19.45;60.63
44920;BME280;30655;53.094;6.072;2022-07-23T10:17:32;101997.94;;;19.53;60.40
44920;BME280;30655;53.094;6.072;2022-07-23T10:27:44;102043.47;;;19.87;60.29
44920;BME280;30655;53.094;6.072;2022-07-23T10:30:34;101980.81;;;19.43;60.45
44920;BME280;30655;53.094;6.072;2022-07-23T10:33:26;102114.34;;;20.31;60.84
44920;BME280;30655;53.094;6.072;2022-07-23T10:36:18;101998.50;;;19.83;60.00
44920;BME280;30655;53.094;6.072;2022-07-23T10:39:07;102130.69;;;20.82;60.68
44920;BME280;30655;53.094;6.072;2022-07-23T10:41:46;102099.63;;;20.81;60.32
44920;BME280;30655;53.094;6.072;2022-07-23T10:44:32;101992.25;;;20.23;59.59
44920;BME280;30655;53.094;6.072;2022-07-23T10:47:50;102040.81;;;20.55;60.06
44920;BME280;30655;53.094;6.072;2022-07-23T11:18:35;102125.81;;;22.53;58.75
44920;BME280;30655;53.094;6.072;2022-07-23T11:20:56;101985.38;;;21.92;57.29
44920;BME280;30655;53.094;6.072;2022-07-23T12:03:22;102031.06;;;23.92;52.06
44920;BME280;30655;53.094;6.072;2022-07-23T12:05:56;102130.66;;;24.68;52.38
44920;BME280;30655;53.094;6.072;2022-07-23T12:08:23;101981.91;;;23.77;52.05
44920;BME280;30655;53.094;6.072;2022-07-23T12:11:05;102106.25;;;24.70;49.49
44920;BME280;30655;53.094;6.072;2022-07-23T12:13:57;101977.50;;;23.84;50.35
44920;BME280;30655;53.094;6.072;2022-07-23T12:16:40;102079.16;;;24.84;50.14
44920;BME280;30655;53.094;6.072;2022-07-23T12:20:06;102122.75;;;25.16;50.13
44920;BME280;30655;53.094;6.072;2022-07-23T12:23:06;101977.09;;;24.41;50.12
44920;BME280;30655;53.094;6.072;2022-07-23T12:26:03;101983.94;;;24.43;49.29
44920;BME280;30655;53.094;6.072;2022-07-23T12:30:14;101994.50;;;24.41;49.11
44920;BME280;30655;53.094;6.072;2022-07-23T12:32:26;102087.28;;;25.18;48.49
44920;BME280;30655;53.094;6.072;2022-07-23T12:38:42;102118.53;;;25.19;49.84
44920;BME280;30655;53.094;6.072;2022-07-23T12:42:50;102118.38;;;25.15;49.53
44920;BME280;30655;53.094;6.072;2022-07-23T12:46:05;102125.84;;;24.85;49.01
44920;BME280;30655;53.094;6.072;2022-07-23T12:49:35;101976.56;;;23.72;49.80
44920;BME280;30655;53.094;6.072;2022-07-23T12:56:16;102018.59;;;23.77;49.83
44920;BME280;30655;53.094;6.072;2022-07-23T12:59:38;101969.16;;;23.29;49.43
44920;BME280;30655;53.094;6.072;2022-07-23T13:02:44;102119.19;;;24.49;48.60
44920;BME280;30655;53.094;6.072;2022-07-23T13:05:24;102011.94;;;23.78;49.85
44920;BME280;30655;53.094;6.072;2022-07-23T13:08:29;101963.31;;;23.22;49.33
44920;BME280;30655;53.094;6.072;2022-07-23T13:11:21;102086.63;;;23.99;50.39
44920;BME280;30655;53.094;6.072;2022-07-23T13:13:48;101953.88;;;23.32;50.21
44920;BME280;30655;53.094;6.072;2022-07-23T13:16:16;102113.78;;;24.61;49.54
44920;BME280;30655;53.094;6.072;2022-07-23T13:18:43;102121.53;;;25.05;49.16
44920;BME280;30655;53.094;6.072;2022-07-23T13:21:10;102123.16;;;25.06;48.39
44920;BME280;30655;53.094;6.072;2022-07-23T13:23:39;102065.91;;;24.69;48.40
44920;BME280;30655;53.094;6.072;2022-07-23T13:29:31;101954.78;;;24.25;49.21
44920;BME280;30655;53.094;6.072;2022-07-23T13:32:18;102121.75;;;25.42;47.88
44920;BME280;30655;53.094;6.072;2022-07-23T13:34:49;102120.66;;;25.63;47.21
44920;BME280;30655;53.094;6.072;2022-07-23T13:37:27;102028.22;;;25.14;47.16
44920;BME280;30655;53.094;6.072;2022-07-23T13:43:50;101954.44;;;24.77;47.36
44920;BME280;30655;53.094;6.072;2022-07-23T13:46:19;102078.31;;;25.63;46.72
44920;BME280;30655;53.094;6.072;2022-07-23T13:49:13;102114.56;;;26.03;46.93
44920;BME280;30655;53.094;6.072;2022-07-23T13:54:57;102029.59;;;25.62;45.84
44920;BME280;30655;53.094;6.072;2022-07-23T13:57:24;102077.56;;;25.87;45.71
44920;BME280;30655;53.094;6.072;2022-07-23T13:59:55;102071.22;;;25.86;45.68
44920;BME280;30655;53.094;6.072;2022-07-23T14:02:24;102054.59;;;25.74;46.30
44920;BME280;30655;53.094;6.072;2022-07-23T14:04:52;102075.28;;;25.89;46.03
44920;BME280;30655;53.094;6.072;2022-07-23T14:07:39;102075.22;;;26.09;45.90
44920;BME280;30655;53.094;6.072;2022-07-23T14:10:23;101946.28;;;25.01;46.32
44920;BME280;30655;53.094;6.072;2022-07-23T14:12:52;102118.47;;;26.02;47.07
44920;BME280;30655;53.094;6.072;2022-07-23T14:15:20;101957.50;;;25.25;45.97
44920;BME280;30655;53.094;6.072;2022-07-23T14:17:54;102105.69;;;26.42;45.40
44920;BME280;30655;53.094;6.072;2022-07-23T14:20:25;102025.44;;;26.01;44.95
44920;BME280;30655;53.094;6.072;2022-07-23T14:22:52;101976.19;;;25.61;44.57
44920;BME280;30655;53.094;6.072;2022-07-23T14:25:19;102013.53;;;26.00;44.39
44920;BME280;30655;53.094;6.072;2022-07-23T14:27:46;102074.38;;;26.54;44.96
44920;BME280;30655;53.094;6.072;2022-07-23T14:30:14;101971.31;;;26.03;44.79
44920;BME280;30655;53.094;6.072;2022-07-23T14:32:43;102038.78;;;26.56;43.85
44920;BME280;30655;53.094;6.072;2022-07-23T14:35:12;102054.97;;;26.78;44.25
44920;BME280;30655;53.094;6.072;2022-07-23T14:37:48;102059.13;;;26.84;43.82
44920;BME280;30655;53.094;6.072;2022-07-23T14:41:01;102056.56;;;26.67;44.02
44920;BME280;30655;53.094;6.072;2022-07-23T14:43:47;102068.34;;;26.76;44.08
44920;BME280;30655;53.094;6.072;2022-07-23T14:48:07;101960.78;;;25.97;42.83
44920;BME280;30655;53.094;6.072;2022-07-23T14:53:57;102120.16;;;26.96;44.93
44920;BME280;30655;53.094;6.072;2022-07-23T15:03:56;101951.56;;;26.05;42.16
44920;BME280;30655;53.094;6.072;2022-07-23T15:07:42;101980.19;;;26.21;43.16
44920;BME280;30655;53.094;6.072;2022-07-23T15:10:03;102111.94;;;27.24;43.70
44920;BME280;30655;53.094;6.072;2022-07-23T15:12:31;102112.25;;;27.23;43.13
44920;BME280;30655;53.094;6.072;2022-07-23T15:15:10;102074.41;;;27.30;43.27
44920;BME280;30655;53.094;6.072;2022-07-23T15:18:26;102048.81;;;27.49;43.55
44920;BME280;30655;53.094;6.072;2022-07-23T15:21:08;102064.41;;;27.81;42.93
44920;BME280;30655;53.094;6.072;2022-07-23T15:23:43;101927.31;;;26.90;42.29
44920;BME280;30655;53.094;6.072;2022-07-23T15:26:40;101996.00;;;26.93;41.72
44920;BME280;30655;53.094;6.072;2022-07-23T15:29:12;102097.06;;;27.45;42.69
44920;BME280;30655;53.094;6.072;2022-07-23T15:31:45;102115.16;;;27.66;42.98
44920;BME280;30655;53.094;6.072;2022-07-23T15:34:22;102095.22;;;27.76;42.56
44920;BME280;30655;53.094;6.072;2022-07-23T15:36:49;102057.09;;;27.61;43.34
44920;BME280;30655;53.094;6.072;2022-07-23T15:39:18;101981.03;;;27.10;42.47
44920;BME280;30655;53.094;6.072;2022-07-23T15:41:49;101965.25;;;26.98;42.13
44920;BME280;30655;53.094;6.072;2022-07-23T15:44:19;102054.00;;;27.51;42.04
44920;BME280;30655;53.094;6.072;2022-07-23T15:57:20;102100.16;;;27.03;42.39
44920;BME280;30655;53.094;6.072;2022-07-23T16:00:30;101997.22;;;26.44;42.62
44920;BME280;30655;53.094;6.072;2022-07-23T16:03:15;101962.75;;;26.08;42.73
44920;BME280;30655;53.094;6.072;2022-07-23T16:05:49;102082.25;;;26.88;42.94
44920;BME280;30655;53.094;6.072;2022-07-23T16:08:57;101905.03;;;25.74;42.16
44920;BME280;30655;53.094;6.072;2022-07-23T16:11:57;101986.81;;;26.29;42.73
44920;BME280;30655;53.094;6.072;2022-07-23T16:18:19;102066.41;;;26.77;42.89
44920;BME280;30655;53.094;6.072;2022-07-23T16:24:34;102069.06;;;26.73;42.79
44920;BME280;30655;53.094;6.072;2022-07-23T16:42:33;101887.41;;;25.01;43.99
44920;BME280;30655;53.094;6.072;2022-07-23T16:45:21;102025.09;;;26.02;44.13
44920;BME280;30655;53.094;6.072;2022-07-23T16:51:40;101955.06;;;25.57;43.69
44920;BME280;30655;53.094;6.072;2022-07-23T16:54:11;102061.53;;;26.25;44.10